sensor_id;sensor_type;location;lat;lon;timestamp;P1;durP1;ratioP1;P2;durP2;ratioP2
30743;SDS011;17486;46.738;7.622;2023-02-28T00:00:20;11.00;;;8.98;;
30743;SDS011;17486;46.738;7.622;2023-02-28T00:02:46;11.68;;;9.13;;
30743;SDS011;17486;46.738;7.622;2023-02-28T00:05:12;11.38;;;8.93;;
30743;SDS011;17486;46.738;7.622;2023-02-28T00:07:39;9.88;;;8.32;;
30743;SDS011;17486;46.738;7.622;2023-02-28T00:10:05;11.15;;;8.75;;
30743;SDS011;17486;46.738;7.622;2023-02-28T00:12:32;9.30;;;8.30;;
30743;SDS011;17486;46.738;7.622;2023-02-28T00:14:59;10.10;;;8.55;;
30743;SDS011;17486;46.738;7.622;2023-02-28T00:17:24;9.68;;;8.65;;
30743;SDS011;17486;46.738;7.622;2023-02-28T00:19:50;9.88;;;8.55;;
30743;SDS011;17486;46.738;7.622;2023-02-28T00:22:17;11.25;;;9.10;;
30743;SDS011;17486;46.738;7.622;2023-02-28T00:24:45;11.77;;;9.45;;
30743;SDS011;17486;46.738;7.622;2023-02-28T00:27:10;11.40;;;9.27;;
30743;SDS011;17486;46.738;7.622;2023-02-28T00:29:36;10.77;;;9.68;;
30743;SDS011;17486;46.738;7.622;2023-02-28T00:32:02;10.57;;;9.07;;
30743;SDS011;17486;46.738;7.622;2023-02-28T00:34:28;11.27;;;9.40;;
30743;SDS011;17486;46.738;7.622;2023-02-28T00:36:54;11.55;;;8.95;;
30743;SDS011;17486;46.738;7.622;2023-02-28T00:39:19;12.10;;;8.68;;
30743;SDS011;17486;46.738;7.622;2023-02-28T00:41:44;9.77;;;8.75;;
30743;SDS011;17486;46.738;7.622;2023-02-28T00:44:10;10.00;;;8.95;;
30743;SDS011;17486;46.738;7.622;2023-02-28T00:46:35;10.63;;;9.60;;
30743;SDS011;17486;46.738;7.622;2023-02-28T00:49:01;12.73;;;9.70;;
30743;SDS011;17486;46.738;7.622;2023-02-28T00:51:26;10.73;;;8.93;;
30743;SDS011;17486;46.738;7.622;2023-02-28T00:53:52;10.13;;;8.45;;
30743;SDS011;17486;46.738;7.622;2023-02-28T00:56:17;9.90;;;8.75;;
30743;SDS011;17486;46.738;7.622;2023-02-28T00:58:43;10.05;;;9.05;;
30743;SDS011;17486;46.738;7.622;2023-02-28T01:01:08;10.68;;;9.00;;
30743;SDS011;17486;46.738;7.622;2023-02-28T01:03:34;11.50;;;8.80;;
30743;SDS011;17486;46.738;7.622;2023-02-28T01:05:59;10.20;;;9.05;;
30743;SDS011;17486;46.738;7.622;2023-02-28T01:08:24;10.45;;;9.35;;
30743;SDS011;17486;46.738;7.622;2023-02-28T01:10:51;11.60;;;9.88;;
30743;SDS011;17486;46.738;7.622;2023-02-28T01:13:16;12.15;;;9.40;;
30743;SDS011;17486;46.738;7.622;2023-02-28T01:15:49;11.10;;;9.30;;
30743;SDS011;17486;46.738;7.622;2023-02-28T01:18:16;11.13;;;9.38;;
30743;SDS011;17486;46.738;7.622;2023-02-28T01:20:42;11.00;;;8.60;;
30743;SDS011;17486;46.738;7.622;2023-02-28T01:23:08;10.73;;;9.55;;
30743;SDS011;17486;46.738;7.622;2023-02-28T01:25:36;10.82;;;9.68;;
30743;SDS011;17486;46.738;7.622;2023-02-28T01:28:02;10.45;;;8.88;;
30743;SDS011;17486;46.738;7.622;2023-02-28T01:30:28;11.38;;;8.77;;
30743;SDS011;17486;46.738;7.622;2023-02-28T01:32:54;10.85;;;8.85;;
30743;SDS011;17486;46.738;7.622;2023-02-28T01:35:19;10.23;;;8.77;;
30743;SDS011;17486;46.738;7.622;2023-02-28T01:37:45;10.65;;;9.48;;
30743;SDS011;17486;46.738;7.622;2023-02-28T01:40:11;12.10;;;10.13;;
30743;SDS011;17486;46.738;7.622;2023-02-28T01:42:37;13.82;;;9.45;;
30743;SDS011;17486;46.738;7.622;2023-02-28T01:47:47;13.63;;;9.43;;
30743;SDS011;17486;46.738;7.622;2023-02-28T01:50:19;11.95;;;10.10;;
30743;SDS011;17486;46.738;7.622;2023-02-28T01:55:14;10.98;;;9.75;;
30743;SDS011;17486;46.738;7.622;2023-02-28T01:57:45;12.38;;;10.48;;
30743;SDS011;17486;46.738;7.622;2023-02-28T02:00:15;11.27;;;9.70;;
30743;SDS011;17486;46.738;7.622;2023-02-28T02:02:44;12.32;;;10.27;;
30743;SDS011;17486;46.738;7.622;2023-02-28T02:05:14;11.13;;;9.45;;
30743;SDS011;17486;46.738;7.622;2023-02-28T02:07:43;11.02;;;9.50;;
30743;SDS011;17486;46.738;7.622;2023-02-28T02:10:19;12.18;;;9.38;;
30743;SDS011;17486;46.738;7.622;2023-02-28T02:15:34;11.30;;;10.10;;
30743;SDS011;17486;46.738;7.622;2023-02-28T02:38:29;13.50;;;10.63;;
30743;SDS011;17486;46.738;7.622;2023-02-28T02:41:12;14.85;;;11.95;;
30743;SDS011;17486;46.738;7.622;2023-02-28T02:44:04;13.02;;;11.00;;
30743;SDS011;17486;46.738;7.622;2023-02-28T02:46:29;12.65;;;11.10;;
30743;SDS011;17486;46.738;7.622;2023-02-28T02:49:00;15.30;;;11.23;;
30743;SDS011;17486;46.738;7.622;2023-02-28T02:51:30;15.30;;;10.33;;
30743;SDS011;17486;46.738;7.622;2023-02-28T02:54:00;14.23;;;10.93;;
30743;SDS011;17486;46.738;7.622;2023-02-28T02:56:31;12.02;;;10.80;;
30743;SDS011;17486;46.738;7.622;2023-02-28T02:59:00;13.27;;;11.10;;
30743;SDS011;17486;46.738;7.622;2023-02-28T03:01:32;12.73;;;11.05;;
30743;SDS011;17486;46.738;7.622;2023-02-28T03:04:04;12.70;;;11.27;;
30743;SDS011;17486;46.738;7.622;2023-02-28T03:06:34;14.80;;;11.18;;
30743;SDS011;17486;46.738;7.622;2023-02-28T03:09:00;15.07;;;11.82;;
30743;SDS011;17486;46.738;7.622;2023-02-28T03:11:26;13.90;;;11.60;;
30743;SDS011;17486;46.738;7.622;2023-02-28T03:16:36;16.45;;;10.80;;
30743;SDS011;17486;46.738;7.622;2023-02-28T03:25:19;12.15;;;10.90;;
30743;SDS011;17486;46.738;7.622;2023-02-28T03:33:07;13.63;;;11.02;;
30743;SDS011;17486;46.738;7.622;2023-02-28T03:35:43;13.77;;;10.80;;
30743;SDS011;17486;46.738;7.622;2023-02-28T03:43:28;13.15;;;10.75;;
30743;SDS011;17486;46.738;7.622;2023-02-28T03:45:59;11.55;;;10.35;;
30743;SDS011;17486;46.738;7.622;2023-02-28T03:48:31;15.43;;;11.40;;
30743;SDS011;17486;46.738;7.622;2023-02-28T03:51:06;13.15;;;11.70;;
30743;SDS011;17486;46.738;7.622;2023-02-28T03:53:36;14.20;;;11.57;;
30743;SDS011;17486;46.738;7.622;2023-02-28T03:59:05;13.73;;;11.88;;
30743;SDS011;17486;46.738;7.622;2023-02-28T04:01:37;14.90;;;12.32;;
30743;SDS011;17486;46.738;7.622;2023-02-28T04:04:06;14.10;;;11.30;;
30743;SDS011;17486;46.738;7.622;2023-02-28T04:06:33;15.48;;;11.35;;
30743;SDS011;17486;46.738;7.622;2023-02-28T04:08:59;13.70;;;12.07;;
30743;SDS011;17486;46.738;7.622;2023-02-28T04:11:36;12.85;;;11.30;;
30743;SDS011;17486;46.738;7.622;2023-02-28T04:14:03;17.55;;;12.30;;
30743;SDS011;17486;46.738;7.622;2023-02-28T04:16:30;14.00;;;11.95;;
30743;SDS011;17486;46.738;7.622;2023-02-28T04:18:57;14.02;;;11.90;;
30743;SDS011;17486;46.738;7.622;2023-02-28T04:21:29;13.30;;;11.48;;
30743;SDS011;17486;46.738;7.622;2023-02-28T04:23:55;14.52;;;11.73;;
30743;SDS011;17486;46.738;7.622;2023-02-28T04:26:29;13.45;;;12.00;;
30743;SDS011;17486;46.738;7.622;2023-02-28T04:28:55;13.05;;;11.55;;
30743;SDS011;17486;46.738;7.622;2023-02-28T04:31:21;13.57;;;11.57;;
30743;SDS011;17486;46.738;7.622;2023-02-28T04:33:46;12.55;;;11.25;;
30743;SDS011;17486;46.738;7.622;2023-02-28T04:36:12;16.13;;;11.60;;
30743;SDS011;17486;46.738;7.622;2023-02-28T04:38:39;13.55;;;11.23;;
30743;SDS011;17486;46.738;7.622;2023-02-28T04:41:05;13.68;;;12.07;;
30743;SDS011;17486;46.738;7.622;2023-02-28T04:43:30;14.30;;;11.98;;
30743;SDS011;17486;46.738;7.622;2023-02-28T04:45:57;14.68;;;12.50;;
30743;SDS011;17486;46.738;7.622;2023-02-28T04:48:27;14.85;;;11.95;;
30743;SDS011;17486;46.738;7.622;2023-02-28T04:50:54;15.80;;;13.18;;
30743;SDS011;17486;46.738;7.622;2023-02-28T04:53:20;16.85;;;13.02;;
30743;SDS011;17486;46.738;7.622;2023-02-28T04:55:46;16.02;;;12.68;;
30743;SDS011;17486;46.738;7.622;2023-02-28T04:58:14;13.38;;;11.95;;
30743;SDS011;17486;46.738;7.622;2023-02-28T05:00:40;16.70;;;12.82;;
30743;SDS011;17486;46.738;7.622;2023-02-28T05:03:05;16.77;;;12.15;;
30743;SDS011;17486;46.738;7.622;2023-02-28T05:05:31;15.88;;;12.57;;
30743;SDS011;17486;46.738;7.622;2023-02-28T05:07:56;16.08;;;13.40;;
30743;SDS011;17486;46.738;7.622;2023-02-28T05:10:22;16.33;;;12.93;;
30743;SDS011;17486;46.738;7.622;2023-02-28T05:12:48;16.50;;;13.73;;
30743;SDS011;17486;46.738;7.622;2023-02-28T05:15:14;14.93;;;12.57;;
30743;SDS011;17486;46.738;7.622;2023-02-28T05:17:40;14.90;;;12.55;;
30743;SDS011;17486;46.738;7.622;2023-02-28T05:20:07;14.85;;;12.70;;
30743;SDS011;17486;46.738;7.622;2023-02-28T05:22:39;17.02;;;12.82;;
30743;SDS011;17486;46.738;7.622;2023-02-28T05:25:05;16.00;;;13.07;;
30743;SDS011;17486;46.738;7.622;2023-02-28T05:27:32;16.08;;;12.45;;
30743;SDS011;17486;46.738;7.622;2023-02-28T05:29:57;15.82;;;12.68;;
30743;SDS011;17486;46.738;7.622;2023-02-28T05:32:24;16.33;;;13.55;;
30743;SDS011;17486;46.738;7.622;2023-02-28T05:34:49;15.88;;;12.88;;
30743;SDS011;17486;46.738;7.622;2023-02-28T05:37:15;16.23;;;12.88;;
30743;SDS011;17486;46.738;7.622;2023-02-28T05:39:40;16.13;;;13.73;;
30743;SDS011;17486;46.738;7.622;2023-02-28T05:42:07;15.73;;;12.73;;
30743;SDS011;17486;46.738;7.622;2023-02-28T05:44:34;15.55;;;13.32;;
30743;SDS011;17486;46.738;7.622;2023-02-28T05:46:59;18.30;;;14.32;;
30743;SDS011;17486;46.738;7.622;2023-02-28T05:49:25;14.73;;;13.15;;
30743;SDS011;17486;46.738;7.622;2023-02-28T05:51:51;17.23;;;12.90;;
30743;SDS011;17486;46.738;7.622;2023-02-28T05:54:16;15.95;;;13.77;;
30743;SDS011;17486;46.738;7.622;2023-02-28T05:56:42;15.52;;;13.35;;
30743;SDS011;17486;46.738;7.622;2023-02-28T05:59:10;14.93;;;13.13;;
30743;SDS011;17486;46.738;7.622;2023-02-28T06:01:37;17.10;;;13.25;;
30743;SDS011;17486;46.738;7.622;2023-02-28T06:04:08;16.40;;;13.70;;
30743;SDS011;17486;46.738;7.622;2023-02-28T06:06:35;17.50;;;13.43;;
30743;SDS011;17486;46.738;7.622;2023-02-28T06:09:02;16.02;;;12.75;;
30743;SDS011;17486;46.738;7.622;2023-02-28T06:11:29;15.05;;;13.27;;
30743;SDS011;17486;46.738;7.622;2023-02-28T06:13:55;18.00;;;13.88;;
30743;SDS011;17486;46.738;7.622;2023-02-28T06:16:25;16.52;;;13.38;;
30743;SDS011;17486;46.738;7.622;2023-02-28T06:18:52;16.75;;;14.02;;
30743;SDS011;17486;46.738;7.622;2023-02-28T06:21:18;18.05;;;13.40;;
30743;SDS011;17486;46.738;7.622;2023-02-28T06:23:44;18.40;;;14.95;;
30743;SDS011;17486;46.738;7.622;2023-02-28T06:26:10;17.40;;;14.45;;
30743;SDS011;17486;46.738;7.622;2023-02-28T06:28:36;17.20;;;14.50;;
30743;SDS011;17486;46.738;7.622;2023-02-28T06:31:05;18.00;;;14.65;;
30743;SDS011;17486;46.738;7.622;2023-02-28T06:33:36;20.77;;;15.32;;
30743;SDS011;17486;46.738;7.622;2023-02-28T06:36:02;17.80;;;13.95;;
30743;SDS011;17486;46.738;7.622;2023-02-28T06:38:28;17.77;;;14.20;;
30743;SDS011;17486;46.738;7.622;2023-02-28T06:40:54;16.55;;;14.60;;
30743;SDS011;17486;46.738;7.622;2023-02-28T06:43:21;18.17;;;14.27;;
30743;SDS011;17486;46.738;7.622;2023-02-28T06:45:47;19.50;;;14.75;;
30743;SDS011;17486;46.738;7.622;2023-02-28T06:48:13;16.45;;;13.95;;
30743;SDS011;17486;46.738;7.622;2023-02-28T06:50:38;17.95;;;13.38;;
30743;SDS011;17486;46.738;7.622;2023-02-28T06:53:04;19.25;;;14.30;;
30743;SDS011;17486;46.738;7.622;2023-02-28T06:55:29;16.38;;;14.38;;
30743;SDS011;17486;46.738;7.622;2023-02-28T06:57:55;17.10;;;14.20;;
30743;SDS011;17486;46.738;7.622;2023-02-28T07:00:21;20.73;;;14.07;;
30743;SDS011;17486;46.738;7.622;2023-02-28T07:02:47;18.20;;;15.45;;
30743;SDS011;17486;46.738;7.622;2023-02-28T07:05:12;16.38;;;14.45;;
30743;SDS011;17486;46.738;7.622;2023-02-28T07:07:38;19.35;;;14.95;;
30743;SDS011;17486;46.738;7.622;2023-02-28T07:10:09;22.77;;;16.45;;
30743;SDS011;17486;46.738;7.622;2023-02-28T07:12:36;24.02;;;18.05;;
30743;SDS011;17486;46.738;7.622;2023-02-28T07:15:02;26.52;;;18.45;;
30743;SDS011;17486;46.738;7.622;2023-02-28T07:17:28;22.90;;;16.98;;
30743;SDS011;17486;46.738;7.622;2023-02-28T07:19:54;21.63;;;15.73;;
30743;SDS011;17486;46.738;7.622;2023-02-28T07:22:19;20.02;;;15.50;;
30743;SDS011;17486;46.738;7.622;2023-02-28T07:24:45;17.67;;;15.25;;
30743;SDS011;17486;46.738;7.622;2023-02-28T07:27:10;18.92;;;16.13;;
30743;SDS011;17486;46.738;7.622;2023-02-28T07:29:36;18.73;;;15.35;;
30743;SDS011;17486;46.738;7.622;2023-02-28T07:32:02;17.40;;;15.30;;
30743;SDS011;17486;46.738;7.622;2023-02-28T07:34:27;16.35;;;14.57;;
30743;SDS011;17486;46.738;7.622;2023-02-28T07:36:53;17.27;;;15.07;;
30743;SDS011;17486;46.738;7.622;2023-02-28T07:39:20;20.02;;;16.00;;
30743;SDS011;17486;46.738;7.622;2023-02-28T07:41:46;18.52;;;15.23;;
30743;SDS011;17486;46.738;7.622;2023-02-28T07:44:11;17.52;;;15.00;;
30743;SDS011;17486;46.738;7.622;2023-02-28T07:46:37;19.83;;;15.45;;
30743;SDS011;17486;46.738;7.622;2023-02-28T07:49:03;19.75;;;15.30;;
30743;SDS011;17486;46.738;7.622;2023-02-28T07:51:29;17.90;;;15.15;;
30743;SDS011;17486;46.738;7.622;2023-02-28T07:53:55;18.02;;;14.43;;
30743;SDS011;17486;46.738;7.622;2023-02-28T07:56:21;113.70;;;78.95;;
30743;SDS011;17486;46.738;7.622;2023-02-28T07:58:46;144.45;;;91.85;;
30743;SDS011;17486;46.738;7.622;2023-02-28T08:01:12;179.02;;;106.88;;
30743;SDS011;17486;46.738;7.622;2023-02-28T08:03:38;189.80;;;115.60;;
30743;SDS011;17486;46.738;7.622;2023-02-28T08:06:04;99.65;;;60.90;;
30743;SDS011;17486;46.738;7.622;2023-02-28T08:08:31;48.08;;;31.40;;
30743;SDS011;17486;46.738;7.622;2023-02-28T08:11:00;28.55;;;19.60;;
30743;SDS011;17486;46.738;7.622;2023-02-28T08:13:27;22.25;;;17.23;;
30743;SDS011;17486;46.738;7.622;2023-02-28T08:15:54;23.50;;;16.73;;
30743;SDS011;17486;46.738;7.622;2023-02-28T08:18:21;18.90;;;15.75;;
30743;SDS011;17486;46.738;7.622;2023-02-28T08:20:47;21.17;;;15.45;;
30743;SDS011;17486;46.738;7.622;2023-02-28T08:23:12;20.42;;;15.70;;
30743;SDS011;17486;46.738;7.622;2023-02-28T08:25:39;19.60;;;16.38;;
30743;SDS011;17486;46.738;7.622;2023-02-28T08:28:04;18.58;;;15.50;;
30743;SDS011;17486;46.738;7.622;2023-02-28T08:30:30;20.15;;;16.15;;
30743;SDS011;17486;46.738;7.622;2023-02-28T08:32:55;18.75;;;15.98;;
30743;SDS011;17486;46.738;7.622;2023-02-28T08:35:21;19.88;;;15.77;;
30743;SDS011;17486;46.738;7.622;2023-02-28T08:37:47;19.05;;;15.35;;
30743;SDS011;17486;46.738;7.622;2023-02-28T08:40:13;19.17;;;15.30;;
30743;SDS011;17486;46.738;7.622;2023-02-28T08:42:43;60.17;;;42.05;;
30743;SDS011;17486;46.738;7.622;2023-02-28T08:45:13;151.15;;;91.90;;
30743;SDS011;17486;46.738;7.622;2023-02-28T08:47:39;242.65;;;147.20;;
30743;SDS011;17486;46.738;7.622;2023-02-28T08:50:05;237.35;;;146.13;;
30743;SDS011;17486;46.738;7.622;2023-02-28T08:52:31;124.60;;;78.50;;
30743;SDS011;17486;46.738;7.622;2023-02-28T08:54:56;55.70;;;37.28;;
30743;SDS011;17486;46.738;7.622;2023-02-28T08:57:21;27.02;;;21.35;;
30743;SDS011;17486;46.738;7.622;2023-02-28T08:59:47;20.80;;;17.27;;
30743;SDS011;17486;46.738;7.622;2023-02-28T09:02:13;18.17;;;16.10;;
30743;SDS011;17486;46.738;7.622;2023-02-28T09:04:39;18.60;;;15.50;;
30743;SDS011;17486;46.738;7.622;2023-02-28T09:07:05;17.75;;;15.15;;
30743;SDS011;17486;46.738;7.622;2023-02-28T09:09:30;19.75;;;15.82;;
30743;SDS011;17486;46.738;7.622;2023-02-28T09:11:56;18.92;;;15.70;;
30743;SDS011;17486;46.738;7.622;2023-02-28T09:14:22;19.27;;;15.00;;
30743;SDS011;17486;46.738;7.622;2023-02-28T09:16:47;19.35;;;16.45;;
30743;SDS011;17486;46.738;7.622;2023-02-28T09:19:13;16.00;;;14.18;;
30743;SDS011;17486;46.738;7.622;2023-02-28T09:21:39;17.38;;;15.05;;
30743;SDS011;17486;46.738;7.622;2023-02-28T09:24:05;18.42;;;14.73;;
30743;SDS011;17486;46.738;7.622;2023-02-28T09:26:30;16.40;;;14.70;;
30743;SDS011;17486;46.738;7.622;2023-02-28T09:28:56;20.65;;;15.77;;
30743;SDS011;17486;46.738;7.622;2023-02-28T09:31:24;20.38;;;15.25;;
30743;SDS011;17486;46.738;7.622;2023-02-28T09:33:53;165.48;;;110.60;;
30743;SDS011;17486;46.738;7.622;2023-02-28T09:36:20;375.90;;;257.17;;
30743;SDS011;17486;46.738;7.622;2023-02-28T09:38:47;596.67;;;422.27;;
30743;SDS011;17486;46.738;7.622;2023-02-28T09:41:24;262.90;;;165.93;;
30743;SDS011;17486;46.738;7.622;2023-02-28T09:43:56;78.00;;;52.95;;
30743;SDS011;17486;46.738;7.622;2023-02-28T09:48:53;21.60;;;18.15;;
30743;SDS011;17486;46.738;7.622;2023-02-28T09:53:55;16.35;;;14.50;;
30743;SDS011;17486;46.738;7.622;2023-02-28T09:56:22;18.45;;;15.70;;
30743;SDS011;17486;46.738;7.622;2023-02-28T09:59:01;16.45;;;14.20;;
30743;SDS011;17486;46.738;7.622;2023-02-28T10:01:43;16.27;;;14.18;;
30743;SDS011;17486;46.738;7.622;2023-02-28T10:10:02;15.75;;;14.05;;
30743;SDS011;17486;46.738;7.622;2023-02-28T10:12:39;15.70;;;14.10;;
30743;SDS011;17486;46.738;7.622;2023-02-28T10:15:12;16.30;;;13.57;;
30743;SDS011;17486;46.738;7.622;2023-02-28T10:17:40;16.25;;;14.07;;
30743;SDS011;17486;46.738;7.622;2023-02-28T10:20:11;15.50;;;13.98;;
30743;SDS011;17486;46.738;7.622;2023-02-28T10:25:27;14.57;;;12.98;;
30743;SDS011;17486;46.738;7.622;2023-02-28T10:27:56;14.73;;;13.02;;
30743;SDS011;17486;46.738;7.622;2023-02-28T10:30:30;64.00;;;44.80;;
30743;SDS011;17486;46.738;7.622;2023-02-28T10:32:56;174.60;;;114.22;;
30743;SDS011;17486;46.738;7.622;2023-02-28T10:35:22;118.75;;;81.18;;
30743;SDS011;17486;46.738;7.622;2023-02-28T10:37:51;65.05;;;43.80;;
30743;SDS011;17486;46.738;7.622;2023-02-28T10:45:26;16.08;;;14.38;;
30743;SDS011;17486;46.738;7.622;2023-02-28T10:50:29;18.27;;;14.80;;
30743;SDS011;17486;46.738;7.622;2023-02-28T11:01:44;16.25;;;14.05;;
30743;SDS011;17486;46.738;7.622;2023-02-28T11:09:48;15.77;;;14.07;;
30743;SDS011;17486;46.738;7.622;2023-02-28T11:12:23;15.82;;;14.27;;
30743;SDS011;17486;46.738;7.622;2023-02-28T11:14:54;15.95;;;14.27;;
30743;SDS011;17486;46.738;7.622;2023-02-28T11:17:24;15.63;;;14.05;;
30743;SDS011;17486;46.738;7.622;2023-02-28T11:19:53;15.90;;;13.90;;
30743;SDS011;17486;46.738;7.622;2023-02-28T11:24:53;17.33;;;13.57;;
30743;SDS011;17486;46.738;7.622;2023-02-28T11:29:56;16.95;;;14.27;;
30743;SDS011;17486;46.738;7.622;2023-02-28T11:32:23;14.88;;;13.30;;
30743;SDS011;17486;46.738;7.622;2023-02-28T11:35:02;15.23;;;13.68;;
30743;SDS011;17486;46.738;7.622;2023-02-28T11:37:36;17.02;;;13.82;;
30743;SDS011;17486;46.738;7.622;2023-02-28T11:40:13;19.67;;;14.27;;
30743;SDS011;17486;46.738;7.622;2023-02-28T11:42:50;19.35;;;13.68;;
30743;SDS011;17486;46.738;7.622;2023-02-28T11:51:46;212.35;;;133.32;;
30743;SDS011;17486;46.738;7.622;2023-02-28T11:54:16;236.85;;;132.75;;
30743;SDS011;17486;46.738;7.622;2023-02-28T11:57:20;64.95;;;40.60;;
30743;SDS011;17486;46.738;7.622;2023-02-28T12:02:49;16.50;;;14.05;;
30743;SDS011;17486;46.738;7.622;2023-02-28T12:05:31;14.38;;;12.88;;
30743;SDS011;17486;46.738;7.622;2023-02-28T12:11:09;14.00;;;12.68;;
30743;SDS011;17486;46.738;7.622;2023-02-28T12:13:48;14.43;;;12.52;;
30743;SDS011;17486;46.738;7.622;2023-02-28T12:16:43;14.50;;;13.10;;
30743;SDS011;17486;46.738;7.622;2023-02-28T12:19:26;14.80;;;13.38;;
30743;SDS011;17486;46.738;7.622;2023-02-28T12:25:00;14.85;;;13.35;;
30743;SDS011;17486;46.738;7.622;2023-02-28T12:27:49;14.20;;;12.85;;
30743;SDS011;17486;46.738;7.622;2023-02-28T12:30:24;13.60;;;12.20;;
30743;SDS011;17486;46.738;7.622;2023-02-28T12:33:12;15.27;;;13.73;;
30743;SDS011;17486;46.738;7.622;2023-02-28T12:35:52;14.48;;;13.00;;
30743;SDS011;17486;46.738;7.622;2023-02-28T12:38:22;13.88;;;12.40;;
30743;SDS011;17486;46.738;7.622;2023-02-28T12:40:50;14.30;;;12.88;;
30743;SDS011;17486;46.738;7.622;2023-02-28T12:43:19;14.60;;;13.03;;
30743;SDS011;17486;46.738;7.622;2023-02-28T12:45:57;14.15;;;12.88;;
30743;SDS011;17486;46.738;7.622;2023-02-28T12:48:31;14.05;;;12.65;;
30743;SDS011;17486;46.738;7.622;2023-02-28T12:50:58;13.80;;;12.43;;
30743;SDS011;17486;46.738;7.622;2023-02-28T12:53:27;14.02;;;12.73;;
30743;SDS011;17486;46.738;7.622;2023-02-28T12:58:45;14.05;;;12.75;;
30743;SDS011;17486;46.738;7.622;2023-02-28T13:09:56;13.95;;;12.65;;
30743;SDS011;17486;46.738;7.622;2023-02-28T13:12:24;14.30;;;12.90;;
30743;SDS011;17486;46.738;7.622;2023-02-28T13:14:51;14.77;;;13.27;;
30743;SDS011;17486;46.738;7.622;2023-02-28T13:17:37;14.98;;;13.48;;
30743;SDS011;17486;46.738;7.622;2023-02-28T13:20:14;18.02;;;13.95;;
30743;SDS011;17486;46.738;7.622;2023-02-28T13:22:42;14.32;;;12.73;;
30743;SDS011;17486;46.738;7.622;2023-02-28T13:27:47;14.55;;;13.05;;
30743;SDS011;17486;46.738;7.622;2023-02-28T13:38:43;13.50;;;12.20;;
30743;SDS011;17486;46.738;7.622;2023-02-28T13:44:04;13.27;;;11.90;;
30743;SDS011;17486;46.738;7.622;2023-02-28T13:46:31;14.07;;;12.50;;
30743;SDS011;17486;46.738;7.622;2023-02-28T13:51:50;13.23;;;11.85;;
30743;SDS011;17486;46.738;7.622;2023-02-28T13:57:08;13.82;;;12.43;;
30743;SDS011;17486;46.738;7.622;2023-02-28T14:05:30;16.25;;;13.63;;
30743;SDS011;17486;46.738;7.622;2023-02-28T14:07:59;15.90;;;13.02;;
30743;SDS011;17486;46.738;7.622;2023-02-28T14:10:35;14.27;;;12.93;;
30743;SDS011;17486;46.738;7.622;2023-02-28T14:13:12;14.25;;;12.77;;
30743;SDS011;17486;46.738;7.622;2023-02-28T14:15:57;14.13;;;12.60;;
30743;SDS011;17486;46.738;7.622;2023-02-28T14:18:26;17.05;;;13.52;;
30743;SDS011;17486;46.738;7.622;2023-02-28T14:21:01;14.55;;;13.15;;
30743;SDS011;17486;46.738;7.622;2023-02-28T14:32:15;14.23;;;12.73;;
30743;SDS011;17486;46.738;7.622;2023-02-28T14:37:33;14.07;;;12.50;;
30743;SDS011;17486;46.738;7.622;2023-02-28T14:40:02;13.18;;;11.82;;
30743;SDS011;17486;46.738;7.622;2023-02-28T14:42:36;14.63;;;13.13;;
30743;SDS011;17486;46.738;7.622;2023-02-28T14:45:18;14.73;;;13.13;;
30743;SDS011;17486;46.738;7.622;2023-02-28T14:47:45;15.88;;;13.20;;
30743;SDS011;17486;46.738;7.622;2023-02-28T14:50:18;18.08;;;14.98;;
30743;SDS011;17486;46.738;7.622;2023-02-28T14:52:46;15.05;;;13.00;;
30743;SDS011;17486;46.738;7.622;2023-02-28T14:55:14;16.60;;;13.65;;
30743;SDS011;17486;46.738;7.622;2023-02-28T14:57:59;15.48;;;13.85;;
30743;SDS011;17486;46.738;7.622;2023-02-28T15:00:40;15.18;;;13.57;;
30743;SDS011;17486;46.738;7.622;2023-02-28T15:03:23;16.35;;;13.80;;
30743;SDS011;17486;46.738;7.622;2023-02-28T15:05:58;15.60;;;14.00;;
30743;SDS011;17486;46.738;7.622;2023-02-28T15:08:26;15.35;;;13.75;;
30743;SDS011;17486;46.738;7.622;2023-02-28T15:13:34;15.93;;;13.50;;
30743;SDS011;17486;46.738;7.622;2023-02-28T15:16:04;15.20;;;13.60;;
30743;SDS011;17486;46.738;7.622;2023-02-28T15:18:46;14.73;;;13.10;;
30743;SDS011;17486;46.738;7.622;2023-02-28T15:21:15;16.42;;;13.93;;
30743;SDS011;17486;46.738;7.622;2023-02-28T15:23:44;17.98;;;13.85;;
30743;SDS011;17486;46.738;7.622;2023-02-28T15:26:19;14.97;;;13.33;;
30743;SDS011;17486;46.738;7.622;2023-02-28T15:28:57;16.02;;;14.25;;
30743;SDS011;17486;46.738;7.622;2023-02-28T15:31:29;16.50;;;13.32;;
30743;SDS011;17486;46.738;7.622;2023-02-28T15:33:58;16.58;;;14.38;;
30743;SDS011;17486;46.738;7.622;2023-02-28T15:36:29;16.88;;;14.15;;
30743;SDS011;17486;46.738;7.622;2023-02-28T15:38:58;17.00;;;14.38;;
30743;SDS011;17486;46.738;7.622;2023-02-28T15:41:35;17.15;;;14.18;;
30743;SDS011;17486;46.738;7.622;2023-02-28T15:44:24;18.60;;;14.60;;
30743;SDS011;17486;46.738;7.622;2023-02-28T15:46:59;15.02;;;12.88;;
30743;SDS011;17486;46.738;7.622;2023-02-28T15:49:38;15.32;;;13.63;;
30743;SDS011;17486;46.738;7.622;2023-02-28T15:52:12;16.35;;;14.35;;
30743;SDS011;17486;46.738;7.622;2023-02-28T15:54:40;15.98;;;13.75;;
30743;SDS011;17486;46.738;7.622;2023-02-28T15:57:10;15.48;;;13.88;;
30743;SDS011;17486;46.738;7.622;2023-02-28T15:59:42;15.95;;;13.82;;
30743;SDS011;17486;46.738;7.622;2023-02-28T16:02:17;15.85;;;14.15;;
30743;SDS011;17486;46.738;7.622;2023-02-28T16:07:21;16.15;;;14.05;;
30743;SDS011;17486;46.738;7.622;2023-02-28T16:09:47;17.58;;;14.30;;
30743;SDS011;17486;46.738;7.622;2023-02-28T16:12:13;17.52;;;14.73;;
30743;SDS011;17486;46.738;7.622;2023-02-28T16:14:39;17.00;;;13.93;;
30743;SDS011;17486;46.738;7.622;2023-02-28T16:17:06;16.60;;;14.63;;
30743;SDS011;17486;46.738;7.622;2023-02-28T16:19:40;17.88;;;14.82;;
30743;SDS011;17486;46.738;7.622;2023-02-28T16:22:05;18.90;;;15.85;;
30743;SDS011;17486;46.738;7.622;2023-02-28T16:24:30;18.45;;;15.20;;
30743;SDS011;17486;46.738;7.622;2023-02-28T16:26:56;17.23;;;15.27;;
30743;SDS011;17486;46.738;7.622;2023-02-28T16:29:33;17.77;;;14.85;;
30743;SDS011;17486;46.738;7.622;2023-02-28T16:32:01;16.55;;;13.98;;
30743;SDS011;17486;46.738;7.622;2023-02-28T16:34:30;17.05;;;14.55;;
30743;SDS011;17486;46.738;7.622;2023-02-28T16:36:55;18.83;;;15.15;;
30743;SDS011;17486;46.738;7.622;2023-02-28T16:39:21;17.38;;;14.68;;
30743;SDS011;17486;46.738;7.622;2023-02-28T16:41:46;17.63;;;15.35;;
30743;SDS011;17486;46.738;7.622;2023-02-28T16:44:34;18.70;;;15.15;;
30743;SDS011;17486;46.738;7.622;2023-02-28T16:47:00;20.77;;;15.73;;
30743;SDS011;17486;46.738;7.622;2023-02-28T16:49:26;19.45;;;14.90;;
30743;SDS011;17486;46.738;7.622;2023-02-28T16:51:52;17.88;;;14.95;;
30743;SDS011;17486;46.738;7.622;2023-02-28T16:54:18;19.52;;;15.85;;
30743;SDS011;17486;46.738;7.622;2023-02-28T16:56:44;18.17;;;15.13;;
30743;SDS011;17486;46.738;7.622;2023-02-28T16:59:12;17.40;;;14.50;;
30743;SDS011;17486;46.738;7.622;2023-02-28T17:01:38;238.02;;;130.85;;
30743;SDS011;17486;46.738;7.622;2023-02-28T17:04:04;247.63;;;136.63;;
30743;SDS011;17486;46.738;7.622;2023-02-28T17:06:30;170.70;;;95.22;;
30743;SDS011;17486;46.738;7.622;2023-02-28T17:08:56;73.85;;;44.00;;
30743;SDS011;17486;46.738;7.622;2023-02-28T17:11:23;31.17;;;22.13;;
30743;SDS011;17486;46.738;7.622;2023-02-28T17:13:50;23.13;;;16.73;;